Time;durP1;ratioP1;P1;durP2;ratioP2;P2;SDS_P1;SDS_P2;PMS_P1;PMS_P2;Temp;Humidity;BMP_temperature;BMP_pressure;BME280_temperature;BME280_humidity;BME280_pressure;Samples;Min_cycle;Max_cycle;Signal;HPM_P1;HPM_P2
2024/01/05 00:01:51;;;;;;;19.50;9.83;;;;;;;-2.68;99.87;99095.31;1659909;85;27341;-48
2024/01/05 00:04:18;;;;;;;16.87;10.05;;;;;;;-2.67;99.70;99107.52;1658980;85;25710;-48
2024/01/05 00:06:45;;;;;;;14.47;9.43;;;;;;;-2.65;99.54;99109.91;1664640;86;25529;-47
2024/01/05 00:09:11;;;;;;;15.80;10.18;;;;;;;-2.68;99.23;99105.91;1660744;85;26238;-47
2024/01/05 00:11:38;;;;;;;16.80;10.43;;;;;;;-2.65;99.32;99117.86;1659669;85;25601;-51
2024/01/05 00:14:04;;;;;;;18.12;10.10;;;;;;;-2.67;99.22;99121.28;1660077;85;27331;-50
2024/01/05 00:16:31;;;;;;;18.60;10.03;;;;;;;-2.67;99.02;99126.58;1660114;85;25643;-51
2024/01/05 00:18:57;;;;;;;18.65;11.10;;;;;;;-2.66;99.18;99122.87;1660213;85;25511;-49
2024/01/05 00:21:26;;;;;;;15.30;9.70;;;;;;;-2.63;99.62;99125.81;1664823;85;25750;-49
2024/01/05 00:23:55;;;;;;;16.37;10.23;;;;;;;-2.60;99.98;99124.52;1660136;86;25469;-50
2024/01/05 00:26:22;;;;;;;17.23;10.20;;;;;;;-2.57;99.96;99127.18;1664847;86;27326;-48
2024/01/05 00:28:50;;;;;;;19.42;9.25;;;;;;;-2.55;100.00;99133.05;1660033;85;25439;-48
2024/01/05 00:31:18;;;;;;;17.37;10.43;;;;;;;-2.54;99.83;99128.80;1660185;86;25506;-47
2024/01/05 00:33:44;;;;;;;15.83;9.95;;;;;;;-2.54;99.59;99146.55;1660633;85;25675;-47
2024/01/05 00:36:11;;;;;;;17.95;10.85;;;;;;;-2.53;99.83;99143.64;1660030;85;25427;-49
2024/01/05 00:38:46;;;;;;;15.70;10.78;;;;;;;-2.50;100.00;99147.66;1664555;86;28083;-48
2024/01/05 00:41:07;;;;;;;18.52;10.68;;;;;;;-2.50;99.81;99153.75;1659692;85;25408;-49
2024/01/05 00:43:34;;;;;;;18.30;10.13;;;;;;;-2.49;99.89;99156.65;1660148;85;25505;-47
2024/01/05 00:46:01;;;;;;;14.10;9.50;;;;;;;-2.48;99.84;99152.17;1660032;84;25688;-49
2024/01/05 00:48:27;;;;;;;16.23;9.83;;;;;;;-2.47;99.91;99169.14;1660871;85;25517;-48
2024/01/05 00:50:54;;;;;;;15.83;9.98;;;;;;;-2.44;100.00;99166.50;1660509;85;27348;-48
2024/01/05 00:53:21;;;;;;;14.53;10.50;;;;;;;-2.44;100.00;99171.27;1660089;85;25900;-48
2024/01/05 00:55:47;;;;;;;14.43;9.38;;;;;;;-2.41;100.00;99183.75;1664548;85;25482;-50
2024/01/05 00:58:14;;;;;;;14.00;8.95;;;;;;;-2.41;99.77;99183.75;1659912;86;26212;-48
2024/01/05 01:00:40;;;;;;;12.88;8.88;;;;;;;-2.41;99.97;99181.89;1660330;85;25406;-49
2024/01/05 01:03:07;;;;;;;14.65;8.80;;;;;;;-2.39;99.86;99196.22;1660510;85;27312;-48
2024/01/05 01:05:34;;;;;;;10.93;7.85;;;;;;;-2.37;99.93;99196.76;1659998;85;25520;-48
2024/01/05 01:08:00;;;;;;;14.80;8.28;;;;;;;-2.37;99.75;99194.11;1660241;85;25419;-47
2024/01/05 01:10:27;;;;;;;9.03;7.20;;;;;;;-2.37;99.64;99193.58;1659956;85;26395;-47
2024/01/05 01:12:53;;;;;;;10.68;7.05;;;;;;;-2.37;99.82;99202.84;1660233;85;25467;-50
2024/01/05 01:15:20;;;;;;;10.40;7.37;;;;;;;-2.35;99.98;99202.60;1660036;85;27884;-50
2024/01/05 01:17:47;;;;;;;9.18;7.12;;;;;;;-2.35;100.00;99202.09;1659892;86;25420;-51
2024/01/05 01:20:13;;;;;;;10.55;7.22;;;;;;;-2.34;99.79;99208.97;1660241;85;25520;-48
2024/01/05 01:22:40;;;;;;;11.22;7.92;;;;;;;-2.35;100.00;99206.06;1660157;85;26152;-49
2024/01/05 01:25:07;;;;;;;10.95;7.08;;;;;;;-2.32;100.00;99213.48;1659972;85;25428;-46
2024/01/05 01:27:34;;;;;;;11.15;7.10;;;;;;;-2.29;100.00;99222.80;1661178;85;27365;-50
2024/01/05 01:30:00;;;;;;;8.53;6.75;;;;;;;-2.31;100.00;99226.23;1659689;85;25856;-48
2024/01/05 01:32:28;;;;;;;12.35;7.53;;;;;;;-2.29;100.00;99230.75;1660161;85;25362;-52
2024/01/05 01:34:54;;;;;;;9.55;7.00;;;;;;;-2.27;100.00;99230.76;1664454;86;25692;-51
2024/01/05 01:37:21;;;;;;;9.65;6.65;;;;;;;-2.28;100.00;99225.73;1659942;85;25495;-47
2024/01/05 01:39:47;;;;;;;10.75;6.90;;;;;;;-2.26;100.00;99239.52;1659856;85;27331;-47
2024/01/05 01:42:14;;;;;;;11.83;6.78;;;;;;;-2.24;100.00;99240.07;1655564;85;25508;-47
2024/01/05 01:44:41;;;;;;;11.25;7.20;;;;;;;-2.24;99.91;99251.20;1648700;86;25529;-47
2024/01/05 01:47:07;;;;;;;8.85;6.80;;;;;;;-2.27;99.91;99246.66;1648218;86;26366;-48
2024/01/05 01:49:34;;;;;;;10.03;6.85;;;;;;;-2.27;99.85;99245.33;1648281;86;25504;-49
2024/01/05 01:52:01;;;;;;;9.25;6.90;;;;;;;-2.26;99.79;99239.52;1648192;87;27379;-49
2024/01/05 01:54:32;;;;;;;8.45;5.80;;;;;;;-2.26;99.79;99232.91;1648136;87;25594;-48
2024/01/05 01:56:56;;;;;;;12.45;6.40;;;;;;;-2.26;99.64;99235.02;1647887;87;25467;-48
2024/01/05 01:59:23;;;;;;;12.05;6.87;;;;;;;-2.26;99.56;99234.23;1648309;87;25608;-47
2024/01/05 02:01:49;;;;;;;8.65;5.97;;;;;;;-2.26;99.52;99238.99;1648367;86;25507;-50
2024/01/05 02:04:20;;;;;;;8.35;5.87;;;;;;;-2.24;99.48;99240.60;1648232;87;27905;-47
2024/01/05 02:06:46;;;;;;;9.65;6.17;;;;;;;-2.23;99.60;99248.81;1648187;86;25399;-47
2024/01/05 02:09:13;;;;;;;10.95;5.97;;;;;;;-2.23;99.06;99250.95;1648247;86;25425;-48
2024/01/05 02:11:40;;;;;;;8.75;5.40;;;;;;;-2.23;99.03;99258.08;1648189;87;25888;-50
2024/01/05 02:14:07;;;;;;;7.97;5.28;;;;;;;-2.23;99.21;99259.41;1648272;87;25446;-47
2024/01/05 02:16:34;;;;;;;9.45;5.70;;;;;;;-2.22;98.97;99259.69;1633928;87;27412;-47
2024/01/05 02:19:00;;;;;;;10.72;6.10;;;;;;;-2.22;98.60;99269.75;1648210;86;25485;-47
2024/01/05 02:21:32;;;;;;;8.43;5.50;;;;;;;-2.22;98.47;99269.75;1648298;87;25455;-46
2024/01/05 02:23:59;;;;;;;9.25;5.78;;;;;;;-2.22;98.32;99276.37;1648221;86;27066;-47
2024/01/05 02:26:26;;;;;;;8.33;5.58;;;;;;;-2.23;98.44;99270.82;1648298;87;25407;-47
2024/01/05 02:28:53;;;;;;;7.37;5.25;;;;;;;-2.26;97.50;99272.11;1648279;87;27320;-47
2024/01/05 02:31:19;;;;;;;7.17;5.20;;;;;;;-2.28;97.23;99279.52;1648183;87;25408;-47
2024/01/05 02:33:46;;;;;;;9.08;5.53;;;;;;;-2.29;97.39;99287.70;1648308;87;25416;-47
2024/01/05 02:36:13;;;;;;;8.50;5.97;;;;;;;-2.28;97.43;99290.64;1648283;87;25608;-47
2024/01/05 02:38:39;;;;;;;6.15;4.60;;;;;;;-2.29;97.46;99293.79;1648320;87;25465;-47
2024/01/05 02:41:10;;;;;;;8.93;5.22;;;;;;;-2.29;97.17;99296.97;1652051;86;27323;-47
2024/01/05 02:43:36;;;;;;;8.13;5.22;;;;;;;-2.28;97.36;99297.27;1662729;86;25482;-48
2024/01/05 02:46:03;;;;;;;6.92;4.58;;;;;;;-2.30;96.90;99301.48;1664193;85;25419;-48
2024/01/05 02:48:30;;;;;;;7.37;4.67;;;;;;;-2.30;96.47;99295.36;1667814;85;25623;-46
2024/01/05 02:50:56;;;;;;;8.65;5.00;;;;;;;-2.31;96.17;99295.11;1660307;85;25423;-48
2024/01/05 02:53:23;;;;;;;7.90;5.25;;;;;;;-2.31;95.92;99295.11;1660016;85;27420;-46
2024/01/05 02:55:49;;;;;;;6.92;4.92;;;;;;;-2.32;96.10;99299.58;1659820;85;25380;-47
2024/01/05 02:58:16;;;;;;;9.95;4.60;;;;;;;-2.30;96.28;99304.12;1660055;85;25461;-47
2024/01/05 03:00:43;;;;;;;6.87;4.92;;;;;;;-2.28;96.20;99307.33;1659871;85;25677;-47
2024/01/05 03:03:09;;;;;;;7.75;4.95;;;;;;;-2.31;95.34;99307.81;1659930;85;25470;-47
2024/01/05 03:05:36;;;;;;;8.40;4.58;;;;;;;-2.30;95.75;99311.25;1660167;85;27310;-47
2024/01/05 03:08:03;;;;;;;7.42;4.92;;;;;;;-2.30;95.35;99308.10;1659753;85;25409;-48
2024/01/05 03:10:30;;;;;;;8.73;4.80;;;;;;;-2.30;95.36;99311.25;1664900;85;25437;-47
2024/01/05 03:12:56;;;;;;;7.28;4.28;;;;;;;-2.29;95.72;99308.36;1659742;86;25841;-48
2024/01/05 03:15:23;;;;;;;8.33;4.62;;;;;;;-2.29;95.18;99310.22;1660403;85;25403;-49
2024/01/05 03:17:50;;;;;;;6.42;4.40;;;;;;;-2.28;95.30;99315.27;1659838;86;27334;-48
2024/01/05 03:20:17;;;;;;;6.10;4.40;;;;;;;-2.28;95.17;99327.73;1664299;86;25549;-48
2024/01/05 03:22:44;;;;;;;6.37;4.35;;;;;;;-2.28;95.17;99331.17;1660314;85;25463;-47
2024/01/05 03:25:10;;;;;;;8.10;4.58;;;;;;;-2.28;94.21;99334.34;1659821;86;26160;-48
2024/01/05 03:27:37;;;;;;;6.92;4.60;;;;;;;-2.30;94.09;99334.59;1660050;85;25437;-47
2024/01/05 03:30:04;;;;;;;6.65;4.20;;;;;;;-2.31;94.00;99338.81;1664397;86;27450;-47
2024/01/05 03:32:30;;;;;;;9.73;4.28;;;;;;;-2.31;94.01;99330.86;1659738;85;25694;-48
2024/01/05 03:34:57;;;;;;;8.10;4.55;;;;;;;-2.33;93.46;99332.97;1659918;85;25450;-48
2024/01/05 03:37:24;;;;;;;7.17;4.55;;;;;;;-2.32;93.83;99337.20;1659895;85;25670;-48
2024/01/05 03:39:50;;;;;;;5.30;3.85;;;;;;;-2.33;93.30;99339.59;1661130;85;25477;-48
2024/01/05 03:42:17;;;;;;;8.98;4.42;;;;;;;-2.33;93.34;99344.89;1661344;86;27393;-47
2024/01/05 03:44:44;;;;;;;6.87;4.42;;;;;;;-2.34;93.07;99353.87;1662446;86;25393;-51
2024/01/05 03:47:11;;;;;;;7.58;4.25;;;;;;;-2.37;92.88;99358.33;1662147;86;25551;-51
2024/01/05 03:49:37;;;;;;;7.58;4.22;;;;;;;-2.38;92.97;99350.91;1662330;86;26171;-51
2024/01/05 03:52:04;;;;;;;7.17;4.70;;;;;;;-2.38;92.88;99360.19;1662331;86;25472;-47
2024/01/05 03:54:30;;;;;;;6.08;3.90;;;;;;;-2.40;92.57;99363.61;1662574;85;27320;-48
2024/01/05 03:56:57;;;;;;;6.03;4.00;;;;;;;-2.40;92.77;99366.76;1662392;86;25476;-48
2024/01/05 03:59:24;;;;;;;9.48;4.87;;;;;;;-2.40;92.59;99373.38;1662505;86;25471;-51
2024/01/05 04:01:50;;;;;;;5.53;3.80;;;;;;;-2.40;92.66;99381.33;1662523;86;25626;-49
2024/01/05 04:04:17;;;;;;;7.17;4.60;;;;;;;-2.41;92.49;99375.23;1663152;85;25450;-48
2024/01/05 04:06:45;;;;;;;6.33;4.22;;;;;;;-2.41;92.60;99383.19;1662816;85;27317;-49
2024/01/05 04:09:11;;;;;;;8.08;3.98;;;;;;;-2.41;92.68;99384.51;1662433;86;25503;-48
2024/01/05 04:11:38;;;;;;;4.62;3.60;;;;;;;-2.45;91.94;99384.20;1662972;85;25508;-48
2024/01/05 04:14:05;;;;;;;8.83;3.83;;;;;;;-2.45;91.85;99386.05;1662482;86;25623;-49
2024/01/05 04:16:32;;;;;;;6.08;4.00;;;;;;;-2.47;91.65;99394.75;1662510;86;25409;-48
2024/01/05 04:18:58;;;;;;;5.78;3.15;;;;;;;-2.48;91.68;99392.63;1662861;86;28009;-48
2024/01/05 04:21:25;;;;;;;6.72;3.42;;;;;;;-2.48;91.30;99389.19;1662632;85;25449;-49
2024/01/05 04:23:56;;;;;;;4.50;3.65;;;;;;;-2.50;90.96;99384.13;1662368;86;25528;-50
2024/01/05 04:26:22;;;;;;;5.37;3.27;;;;;;;-2.51;90.88;99390.47;1662787;85;25678;-48
2024/01/05 04:28:49;;;;;;;5.00;2.92;;;;;;;-2.52;90.70;99398.15;1664294;85;25483;-49
2024/01/05 04:31:15;;;;;;;4.87;3.15;;;;;;;-2.52;91.06;99408.74;1662708;85;27307;-48
2024/01/05 04:33:42;;;;;;;4.08;2.62;;;;;;;-2.51;90.98;99416.16;1662912;85;25631;-49
2024/01/05 04:36:08;;;;;;;3.55;2.35;;;;;;;-2.52;91.06;99423.81;1662601;85;25421;-48
2024/01/05 04:38:35;;;;;;;4.95;3.00;;;;;;;-2.52;90.03;99428.60;1662456;85;25722;-47
2024/01/05 04:41:04;;;;;;;4.65;2.75;;;;;;;-2.53;90.03;99432.28;1663589;85;25491;-47
2024/01/05 04:43:31;;;;;;;3.52;2.62;;;;;;;-2.51;90.68;99435.48;1662772;85;27864;-48
2024/01/05 04:45:57;;;;;;;4.33;2.25;;;;;;;-2.52;90.48;99444.99;1662715;85;25493;-48
2024/01/05 04:48:24;;;;;;;5.60;2.85;;;;;;;-2.51;90.53;99438.66;1662698;85;25523;-47
2024/01/05 04:50:50;;;;;;;2.95;2.10;;;;;;;-2.50;90.67;99448.22;1662617;86;26333;-47
2024/01/05 04:53:17;;;;;;;4.55;2.80;;;;;;;-2.52;90.01;99439.20;1662234;86;25409;-47
2024/01/05 04:55:44;;;;;;;4.08;2.37;;;;;;;-2.51;90.41;99441.31;1662671;85;28055;-47
2024/01/05 04:58:10;;;;;;;5.47;2.30;;;;;;;-2.52;89.98;99441.84;1662530;86;25766;-48
2024/01/05 05:00:37;;;;;;;3.60;2.55;;;;;;;-2.53;89.65;99451.35;1662614;86;25401;-47
2024/01/05 05:03:05;;;;;;;5.58;3.02;;;;;;;-2.53;89.88;99455.33;1662636;85;25632;-47
2024/01/05 05:05:31;;;;;;;3.50;2.70;;;;;;;-2.54;89.76;99451.85;1662612;86;25399;-47
2024/01/05 05:07:58;;;;;;;3.27;2.58;;;;;;;-2.53;90.14;99457.97;1662593;86;27348;-47
2024/01/05 05:10:25;;;;;;;4.08;2.50;;;;;;;-2.53;89.90;99452.67;1662508;86;25474;-47
2024/01/05 05:12:51;;;;;;;4.37;2.50;;;;;;;-2.52;90.07;99451.11;1662909;85;25482;-47
2024/01/05 05:15:18;;;;;;;3.40;2.10;;;;;;;-2.52;90.13;99451.61;1662462;86;25608;-48
2024/01/05 05:17:45;;;;;;;4.40;2.65;;;;;;;-2.53;89.50;99462.73;1662745;85;25388;-48
2024/01/05 05:20:12;;;;;;;3.35;2.15;;;;;;;-2.53;89.44;99465.92;1663107;85;27988;-48
2024/01/05 05:22:39;;;;;;;3.58;2.30;;;;;;;-2.55;89.22;99450.27;1662780;85;25627;-48
2024/01/05 05:25:06;;;;;;;2.72;1.90;;;;;;;-2.55;89.53;99462.19;1662697;85;25423;-50
2024/01/05 05:27:33;;;;;;;2.67;2.00;;;;;;;-2.53;89.67;99460.63;1681515;85;25707;-49
2024/01/05 05:30:01;;;;;;;2.62;2.22;;;;;;;-2.55;89.59;99464.83;1681504;85;25466;-47
2024/01/05 05:32:28;;;;;;;3.98;2.42;;;;;;;-2.54;89.21;99474.89;1681465;85;27863;-46
2024/01/05 05:34:55;;;;;;;3.12;2.00;;;;;;;-2.57;88.69;99475.37;1680628;85;25626;-47
2024/01/05 05:37:21;;;;;;;2.92;2.08;;;;;;;-2.57;89.31;99484.14;1681571;85;25412;-47
2024/01/05 05:39:48;;;;;;;2.85;2.17;;;;;;;-2.56;89.59;99484.93;1681496;85;25677;-49
2024/01/05 05:42:15;;;;;;;2.95;2.08;;;;;;;-2.55;89.70;99493.17;1674502;85;25388;-49
2024/01/05 05:44:41;;;;;;;6.05;2.62;;;;;;;-2.54;89.21;99497.41;1657573;86;27350;-47
2024/01/05 05:47:08;;;;;;;3.45;2.30;;;;;;;-2.55;89.10;99494.48;1657650;86;25718;-47
2024/01/05 05:49:35;;;;;;;3.83;2.47;;;;;;;-2.54;89.07;99500.05;1647810;87;25397;-47
2024/01/05 05:52:01;;;;;;;2.58;2.10;;;;;;;-2.54;89.39;99508.00;1647840;86;25559;-47
2024/01/05 05:54:28;;;;;;;2.67;2.10;;;;;;;-2.54;89.12;99515.94;1647662;87;25487;-48
2024/01/05 05:56:54;;;;;;;2.50;2.00;;;;;;;-2.55;88.93;99526.27;1647732;87;27339;-48
2024/01/05 05:59:21;;;;;;;2.77;2.17;;;;;;;-2.54;89.38;99516.73;1647619;87;25486;-47
2024/01/05 06:01:48;;;;;;;2.80;1.98;;;;;;;-2.52;89.31;99519.97;1647771;87;25433;-48
2024/01/05 06:04:14;;;;;;;2.83;1.90;;;;;;;-2.53;89.26;99517.55;1647740;87;26281;-46
2024/01/05 06:06:41;;;;;;;3.60;1.85;;;;;;;-2.50;88.48;99521.05;1647828;87;25373;-49
2024/01/05 06:09:07;;;;;;;3.92;2.00;;;;;;;-2.50;88.76;99523.17;1657823;86;27295;-48
2024/01/05 06:11:34;;;;;;;2.45;2.20;;;;;;;-2.49;88.68;99524.75;1657496;86;25398;-52
2024/01/05 06:14:04;;;;;;;4.03;2.25;;;;;;;-2.47;88.87;99534.61;1647751;86;25473;-49
2024/01/05 06:16:29;;;;;;;3.23;2.17;;;;;;;-2.44;88.78;99545.23;1647929;86;25604;-49
2024/01/05 06:18:56;;;;;;;3.50;1.82;;;;;;;-2.44;88.54;99539.93;1647634;87;25445;-48
2024/01/05 06:21:22;;;;;;;3.02;2.10;;;;;;;-2.42;88.65;99547.64;1642674;87;27336;-47
2024/01/05 06:23:49;;;;;;;3.17;2.00;;;;;;;-2.39;88.74;99551.13;1647823;86;25436;-48
2024/01/05 06:26:16;;;;;;;2.20;1.82;;;;;;;-2.38;88.39;99544.78;1647643;86;25413;-48
2024/01/05 06:28:42;;;;;;;2.80;2.20;;;;;;;-2.39;88.00;99551.13;1647804;86;25612;-50
2024/01/05 06:31:08;;;;;;;2.27;1.80;;;;;;;-2.39;87.65;99553.25;1647710;87;25469;-51
2024/01/05 06:33:35;;;;;;;3.12;1.77;;;;;;;-2.39;87.36;99549.81;1647558;86;27959;-48
2024/01/05 06:36:02;;;;;;;4.17;1.92;;;;;;;-2.38;87.08;99553.55;1647709;87;25595;-49
2024/01/05 06:38:29;;;;;;;3.98;2.35;;;;;;;-2.37;87.17;99556.98;1647778;87;25079;-49
2024/01/05 06:40:55;;;;;;;3.47;2.12;;;;;;;-2.38;85.99;99565.97;1657495;86;25583;-48
2024/01/05 06:43:22;;;;;;;3.70;2.00;;;;;;;-2.39;86.29;99565.70;1669516;85;25487;-48
2024/01/05 06:45:49;;;;;;;3.70;2.02;;;;;;;-2.39;86.53;99564.38;1678806;85;27310;-50
2024/01/05 06:48:16;;;;;;;3.27;2.25;;;;;;;-2.38;86.44;99565.97;1678673;85;25595;-49
2024/01/05 06:50:43;;;;;;;3.70;2.45;;;;;;;-2.36;86.84;99578.47;1678910;85;25440;-50
2024/01/05 06:53:09;;;;;;;3.30;2.00;;;;;;;-2.35;86.47;99580.88;1678915;85;25664;-48
2024/01/05 06:55:36;;;;;;;3.45;1.80;;;;;;;-2.34;86.45;99579.82;1678905;85;25072;-48
2024/01/05 06:58:03;;;;;;;4.40;2.17;;;;;;;-2.33;86.49;99585.41;1678606;85;26890;-48
2024/01/05 07:00:30;;;;;;;2.58;2.00;;;;;;;-2.31;86.39;99587.30;1650288;87;25561;-48
2024/01/05 07:02:57;;;;;;;2.35;1.95;;;;;;;-2.30;85.70;99584.94;1650897;86;25437;-51
2024/01/05 07:05:23;;;;;;;2.65;1.95;;;;;;;-2.29;85.97;99588.38;1650914;86;25675;-48
2024/01/05 07:07:50;;;;;;;2.35;2.02;;;;;;;-2.26;85.99;99590.55;1650350;87;25495;-47
2024/01/05 07:10:16;;;;;;;4.22;2.60;;;;;;;-2.26;86.26;99599.30;1650369;86;27573;-49
2024/01/05 07:12:43;;;;;;;6.08;2.22;;;;;;;-2.24;85.66;99588.98;1651044;86;25586;-47
2024/01/05 07:15:10;;;;;;;2.77;2.27;;;;;;;-2.26;85.71;99592.67;1650524;86;25432;-48
2024/01/05 07:17:36;;;;;;;2.50;2.00;;;;;;;-2.23;85.54;99596.70;1650372;86;25603;-48
2024/01/05 07:20:04;;;;;;;2.65;2.25;;;;;;;-2.23;84.68;99606.47;1650385;86;25431;-49
2024/01/05 07:22:30;;;;;;;4.58;2.20;;;;;;;-2.25;84.29;99604.06;1650372;86;28149;-47
2024/01/05 07:24:57;;;;;;;2.55;2.22;;;;;;;-2.26;83.99;99600.62;1650703;86;25428;-48
2024/01/05 07:27:24;;;;;;;5.95;2.60;;;;;;;-2.26;84.05;99595.85;1650378;86;25480;-51
2024/01/05 07:29:51;;;;;;;3.55;2.30;;;;;;;-2.27;84.09;99601.65;1650297;86;25652;-47
2024/01/05 07:32:18;;;;;;;3.72;2.35;;;;;;;-2.26;84.36;99600.62;1650961;86;25477;-51
2024/01/05 07:34:45;;;;;;;3.98;2.40;;;;;;;-2.23;84.35;99603.82;1650516;86;27371;-49
2024/01/05 07:37:11;;;;;;;3.20;2.60;;;;;;;-2.23;84.81;99602.50;1650885;86;25369;-47
2024/01/05 07:39:38;;;;;;;2.58;2.22;;;;;;;-2.22;84.27;99601.47;1650317;87;25397;-49
2024/01/05 07:42:05;;;;;;;3.40;2.60;;;;;;;-2.25;84.34;99605.39;1650355;86;25602;-49
2024/01/05 07:44:32;;;;;;;3.72;2.62;;;;;;;-2.25;84.13;99608.03;1661358;86;25476;-47
2024/01/05 07:46:58;;;;;;;3.83;2.62;;;;;;;-2.23;84.31;99602.50;1662508;86;27297;-49
2024/01/05 07:49:25;;;;;;;3.85;2.50;;;;;;;-2.22;84.75;99606.23;1662422;86;25504;-50
2024/01/05 07:51:52;;;;;;;3.40;2.60;;;;;;;-2.21;83.95;99610.50;1663247;85;25448;-48
2024/01/05 07:54:19;;;;;;;4.33;2.95;;;;;;;-2.18;85.16;99607.88;1662684;85;26307;-50
2024/01/05 07:56:45;;;;;;;4.05;3.22;;;;;;;-2.16;85.33;99609.26;1662763;85;25406;-49
2024/01/05 07:59:12;;;;;;;4.62;2.92;;;;;;;-2.12;85.08;99615.67;1662911;85;27326;-48
2024/01/05 08:01:39;;;;;;;5.78;2.98;;;;;;;-2.12;85.06;99611.69;1662867;85;25442;-48
2024/01/05 08:04:07;;;;;;;3.22;2.50;;;;;;;-2.12;85.12;99618.31;1662634;86;25474;-48
2024/01/05 08:06:34;;;;;;;3.75;2.70;;;;;;;-2.11;85.21;99625.23;1663267;85;25572;-49
2024/01/05 08:09:00;;;;;;;5.60;4.22;;;;;;;-2.08;85.39;99622.61;1662633;86;25393;-48
2024/01/05 08:11:27;;;;;;;4.95;3.22;;;;;;;-2.06;85.61;99620.52;1662710;85;27430;-49
2024/01/05 08:13:54;;;;;;;3.92;2.98;;;;;;;-2.03;85.53;99624.55;1662673;85;25410;-49
2024/01/05 08:16:20;;;;;;;5.20;2.90;;;;;;;-2.02;84.99;99620.86;1662641;86;25481;-49
2024/01/05 08:18:47;;;;;;;7.00;3.58;;;;;;;-2.01;85.08;99621.13;1662665;85;25608;-49
2024/01/05 08:21:14;;;;;;;5.15;2.92;;;;;;;-2.01;84.86;99621.95;1662635;86;25454;-48
2024/01/05 08:23:40;;;;;;;4.67;3.10;;;;;;;-1.98;85.35;99625.41;1662336;86;27242;-49
2024/01/05 08:26:08;;;;;;;5.00;2.98;;;;;;;-1.95;85.44;99631.56;1655863;86;25544;-48
2024/01/05 08:28:34;;;;;;;3.77;2.90;;;;;;;-1.92;85.35;99641.69;1655897;86;25481;-48
2024/01/05 08:31:01;;;;;;;4.28;3.08;;;;;;;-1.93;85.08;99638.74;1655880;86;25686;-48
2024/01/05 08:33:27;;;;;;;6.30;3.30;;;;;;;-1.92;85.17;99631.62;1655886;86;25445;-49
2024/01/05 08:35:54;;;;;;;5.20;3.70;;;;;;;-1.91;85.35;99649.11;1655928;86;27328;-48
2024/01/05 08:38:21;;;;;;;3.30;2.87;;;;;;;-1.89;85.85;99646.51;1655831;86;25410;-48
2024/01/05 08:40:50;;;;;;;6.85;3.55;;;;;;;-1.86;86.14;99642.56;1655953;86;25396;-47
2024/01/05 08:43:17;;;;;;;3.90;3.22;;;;;;;-1.78;86.30;99653.29;1654463;85;25615;-48
2024/01/05 08:45:45;;;;;;;7.20;3.58;;;;;;;-1.75;86.46;99646.18;1650477;87;25443;-47
2024/01/05 08:48:11;;;;;;;4.45;3.58;;;;;;;-1.75;86.17;99652.81;1653167;86;27414;-47
2024/01/05 08:50:38;;;;;;;5.50;3.90;;;;;;;-1.73;86.11;99654.16;1654999;86;25672;-48
2024/01/05 08:53:05;;;;;;;6.55;3.98;;;;;;;-1.73;85.95;99658.67;1600458;89;25156;-48
2024/01/05 08:55:32;;;;;;;4.83;3.47;;;;;;;-1.72;86.24;99665.56;1600465;88;25671;-50
2024/01/05 08:57:58;;;;;;;4.35;3.80;;;;;;;-1.72;86.15;99674.84;1648064;86;25410;-47
2024/01/05 09:00:26;;;;;;;5.92;4.53;;;;;;;-1.72;86.20;99682.30;1652172;86;28105;-49
2024/01/05 09:02:53;;;;;;;4.65;3.50;;;;;;;-1.74;86.16;99677.77;1591325;90;25565;-47
2024/01/05 09:05:19;;;;;;;3.80;3.40;;;;;;;-1.74;86.32;99676.94;1612710;87;25418;-48
2024/01/05 09:07:47;;;;;;;6.92;3.85;;;;;;;-1.73;86.42;99685.98;1602112;89;25790;-48
2024/01/05 09:10:14;;;;;;;6.55;3.77;;;;;;;-1.76;86.97;99677.17;1634356;87;25466;-49
2024/01/05 09:12:40;;;;;;;5.45;3.50;;;;;;;-1.70;86.82;99680.73;1634586;87;27998;-49
2024/01/05 09:15:08;;;;;;;4.22;3.25;;;;;;;-1.70;86.74;99678.08;1634264;87;25473;-46
2024/01/05 09:17:35;;;;;;;5.83;3.80;;;;;;;-1.67;86.79;99683.41;1656476;85;25394;-47
2024/01/05 09:20:03;;;;;;;5.67;3.58;;;;;;;-1.67;86.96;99685.52;1654987;86;25695;-49
2024/01/05 09:22:29;;;;;;;5.70;3.42;;;;;;;-1.64;86.86;99682.39;1622190;87;25479;-48
2024/01/05 09:24:56;;;;;;;6.47;3.45;;;;;;;-1.63;86.73;99684.54;1623551;87;28124;-49
2024/01/05 09:27:23;;;;;;;5.47;3.40;;;;;;;-1.62;86.49;99684.27;1623292;87;25483;-49
2024/01/05 09:29:50;;;;;;;2.70;2.15;;;;;;;-1.62;86.78;99689.58;1654803;86;25401;-49
2024/01/05 09:32:17;;;;;;;4.05;2.92;;;;;;;-1.62;86.06;99692.23;1622419;88;25667;-51
2024/01/05 09:34:44;;;;;;;5.30;3.33;;;;;;;-1.63;85.62;99690.64;1653614;86;25447;-48
2024/01/05 09:37:11;;;;;;;4.20;3.40;;;;;;;-1.61;85.87;99698.36;1621483;88;27838;-46
2024/01/05 09:39:37;;;;;;;5.53;3.15;;;;;;;-1.64;85.35;99693.53;1654944;86;25473;-47
2024/01/05 09:42:05;;;;;;;4.60;3.30;;;;;;;-1.64;85.54;99693.53;1654904;86;25463;-47
2024/01/05 09:44:31;;;;;;;4.12;3.15;;;;;;;-1.62;85.97;99691.44;1623964;88;25669;-48
2024/01/05 09:46:58;;;;;;;3.75;3.05;;;;;;;-1.63;85.68;99687.98;1654741;86;25424;-47
2024/01/05 09:49:25;;;;;;;4.22;3.45;;;;;;;-1.60;85.75;99692.81;1599986;89;27319;-49
2024/01/05 09:51:53;;;;;;;4.47;3.33;;;;;;;-1.58;85.74;99694.69;1627134;88;25701;-48
2024/01/05 09:54:19;;;;;;;4.05;3.15;;;;;;;-1.55;85.79;99688.08;1654868;86;25586;-49
2024/01/05 09:56:47;;;;;;;5.58;3.42;;;;;;;-1.54;85.42;99697.13;1626850;88;25628;-48
2024/01/05 09:59:17;;;;;;;4.45;3.15;;;;;;;-1.51;85.52;99694.52;1654915;86;25408;-49
2024/01/05 10:01:43;;;;;;;4.10;3.45;;;;;;;-1.51;85.61;99695.31;1599902;89;28082;-50
2024/01/05 10:04:09;;;;;;;5.37;3.72;;;;;;;-1.48;85.81;99694.04;1627120;88;25637;-48
2024/01/05 10:06:36;;;;;;;3.92;2.95;;;;;;;-1.46;84.99;99694.59;1655052;86;25422;-49
2024/01/05 10:09:02;;;;;;;4.08;3.25;;;;;;;-1.47;84.51;99696.16;1601592;89;25608;-48
2024/01/05 10:11:31;;;;;;;5.35;3.10;;;;;;;-1.48;84.12;99697.20;1655381;86;25469;-48
2024/01/05 10:14:01;;;;;;;4.10;2.98;;;;;;;-1.48;84.80;99692.72;1600642;88;27327;-49
2024/01/05 10:16:36;;;;;;;6.60;3.00;;;;;;;-1.44;84.66;99695.15;1599324;89;25500;-49
2024/01/05 10:19:03;;;;;;;5.65;3.15;;;;;;;-1.43;84.46;99695.94;1626495;88;25612;-48
2024/01/05 10:21:29;;;;;;;5.03;3.22;;;;;;;-1.41;84.92;99690.69;1623631;88;25604;-48
2024/01/05 10:23:57;;;;;;;4.03;3.22;;;;;;;-1.38;84.41;99701.31;1654866;86;25452;-49
2024/01/05 10:26:24;;;;;;;5.47;3.55;;;;;;;-1.39;83.67;99706.36;1626763;88;28122;-48
2024/01/05 10:28:50;;;;;;;6.00;3.77;;;;;;;-1.40;83.20;99706.07;1654762;86;25754;-49
2024/01/05 10:31:18;;;;;;;5.80;3.22;;;;;;;-1.41;83.43;99706.60;1599906;89;25504;-49
2024/01/05 10:33:53;;;;;;;4.42;3.40;;;;;;;-1.33;83.51;99705.37;1654239;86;25683;-48
2024/01/05 10:36:24;;;;;;;4.72;3.20;;;;;;;-1.27;84.13;99712.36;1626763;88;25458;-48
2024/01/05 10:38:51;;;;;;;3.85;3.00;;;;;;;-1.18;84.41;99718.84;1654750;86;27886;-49
2024/01/05 10:41:23;;;;;;;5.72;3.45;;;;;;;-1.11;83.99;99712.56;1626607;88;25461;-48
2024/01/05 10:43:50;;;;;;;3.95;2.90;;;;;;;-1.07;83.99;99717.14;1654805;86;25524;-49
2024/01/05 10:46:18;;;;;;;7.83;4.22;;;;;;;-0.96;84.63;99723.38;1599387;89;25562;-48
2024/01/05 10:48:45;;;;;;;5.97;3.30;;;;;;;-0.89;84.41;99721.88;1654896;86;25473;-48
2024/01/05 10:51:23;;;;;;;5.83;3.55;;;;;;;-0.82;83.37;99731.78;1599872;89;27882;-48
2024/01/05 10:53:50;;;;;;;6.40;3.02;;;;;;;-0.81;83.03;99726.22;1627094;88;25448;-48
2024/01/05 10:56:20;;;;;;;5.33;2.98;;;;;;;-0.75;82.78;99725.75;1654788;86;25482;-48
2024/01/05 10:58:50;;;;;;;6.78;3.25;;;;;;;-0.73;82.52;99731.64;1626429;88;25720;-47
2024/01/05 11:01:22;;;;;;;3.05;2.77;;;;;;;-0.69;82.52;99731.94;1654649;86;25411;-49
2024/01/05 11:03:52;;;;;;;4.90;3.00;;;;;;;-0.67;81.27;99731.95;1598897;89;28112;-47
2024/01/05 11:06:19;;;;;;;6.00;3.00;;;;;;;-0.69;80.86;99728.75;1654441;86;25425;-48
2024/01/05 11:09:03;;;;;;;5.15;2.77;;;;;;;-0.68;80.53;99729.55;1599760;89;25430;-48
2024/01/05 11:11:50;;;;;;;3.45;2.72;;;;;;;-0.68;80.14;99730.88;1627129;88;26186;-48
2024/01/05 11:14:40;;;;;;;4.53;2.83;;;;;;;-0.66;80.60;99728.80;1664407;86;25527;-48
2024/01/05 11:17:40;;;;;;;4.53;3.12;;;;;;;-0.63;80.77;99726.44;1664615;86;27935;-49
2024/01/05 11:20:28;;;;;;;5.72;2.90;;;;;;;-0.55;80.88;99724.39;1654562;86;25503;-48
2024/01/05 11:22:56;;;;;;;3.83;2.57;;;;;;;-0.55;79.78;99729.17;1608545;88;25533;-48
2024/01/05 11:25:23;;;;;;;3.87;2.62;;;;;;;-0.53;80.09;99723.61;1654820;86;25672;-49
2024/01/05 11:27:50;;;;;;;6.00;2.70;;;;;;;-0.53;79.70;99717.77;1625954;88;25446;-50
2024/01/05 11:30:38;;;;;;;4.00;2.20;;;;;;;-0.51;78.72;99716.19;1654804;86;27390;-48
2024/01/05 11:33:06;;;;;;;4.05;2.47;;;;;;;-0.50;77.19;99715.14;1626253;88;25660;-48